sensor_id;sensor_type;location;lat;lon;timestamp;temperature;humidity
21061;DHT22;10689;50.836;3.266;2022-11-09T00:01:29;14.60;99.90
21061;DHT22;10689;50.836;3.266;2022-11-09T00:04:00;14.60;99.90
21061;DHT22;10689;50.836;3.266;2022-11-09T00:06:27;14.60;99.90
21061;DHT22;10689;50.836;3.266;2022-11-09T00:08:53;14.50;99.90
21061;DHT22;10689;50.836;3.266;2022-11-09T00:11:20;14.50;99.90
21061;DHT22;10689;50.836;3.266;2022-11-09T00:13:46;14.50;99.90
21061;DHT22;10689;50.836;3.266;2022-11-09T00:16:14;14.50;99.90
21061;DHT22;10689;50.836;3.266;2022-11-09T00:18:41;14.60;99.90
21061;DHT22;10689;50.836;3.266;2022-11-09T00:21:18;14.40;99.90
21061;DHT22;10689;50.836;3.266;2022-11-09T00:23:44;14.40;99.90
21061;DHT22;10689;50.836;3.266;2022-11-09T00:26:12;14.40;99.90
21061;DHT22;10689;50.836;3.266;2022-11-09T00:28:38;14.30;99.90
21061;DHT22;10689;50.836;3.266;2022-11-09T00:31:09;14.30;99.90
21061;DHT22;10689;50.836;3.266;2022-11-09T00:33:36;14.30;99.90
21061;DHT22;10689;50.836;3.266;2022-11-09T00:36:04;14.30;99.90
21061;DHT22;10689;50.836;3.266;2022-11-09T00:38:35;14.30;99.90
21061;DHT22;10689;50.836;3.266;2022-11-09T00:41:04;14.30;99.90
21061;DHT22;10689;50.836;3.266;2022-11-09T00:43:30;14.30;99.90
21061;DHT22;10689;50.836;3.266;2022-11-09T00:45:57;14.30;99.90
21061;DHT22;10689;50.836;3.266;2022-11-09T00:48:23;14.30;99.90
21061;DHT22;10689;50.836;3.266;2022-11-09T00:50:50;14.30;99.90
21061;DHT22;10689;50.836;3.266;2022-11-09T00:53:16;14.40;99.90
21061;DHT22;10689;50.836;3.266;2022-11-09T00:55:41;14.30;99.90
21061;DHT22;10689;50.836;3.266;2022-11-09T00:58:08;14.40;99.90
21061;DHT22;10689;50.836;3.266;2022-11-09T01:00:33;14.50;99.90
21061;DHT22;10689;50.836;3.266;2022-11-09T01:02:59;14.40;99.90
21061;DHT22;10689;50.836;3.266;2022-11-09T01:05:25;14.50;99.90
21061;DHT22;10689;50.836;3.266;2022-11-09T01:07:50;14.50;99.90
21061;DHT22;10689;50.836;3.266;2022-11-09T01:10:16;14.50;99.90
21061;DHT22;10689;50.836;3.266;2022-11-09T01:12:42;14.60;99.90
21061;DHT22;10689;50.836;3.266;2022-11-09T01:15:08;14.50;99.90
21061;DHT22;10689;50.836;3.266;2022-11-09T01:17:33;14.50;99.90
21061;DHT22;10689;50.836;3.266;2022-11-09T01:19:59;14.40;99.90
21061;DHT22;10689;50.836;3.266;2022-11-09T01:22:25;14.40;99.90
21061;DHT22;10689;50.836;3.266;2022-11-09T01:24:51;14.30;99.90
21061;DHT22;10689;50.836;3.266;2022-11-09T01:27:16;14.20;99.90
21061;DHT22;10689;50.836;3.266;2022-11-09T01:29:42;14.20;99.90
21061;DHT22;10689;50.836;3.266;2022-11-09T01:32:08;14.30;99.90
21061;DHT22;10689;50.836;3.266;2022-11-09T01:34:33;14.30;99.90
21061;DHT22;10689;50.836;3.266;2022-11-09T01:36:59;14.30;99.90
21061;DHT22;10689;50.836;3.266;2022-11-09T01:39:25;14.40;99.90
21061;DHT22;10689;50.836;3.266;2022-11-09T01:41:51;14.30;99.90
21061;DHT22;10689;50.836;3.266;2022-11-09T01:44:18;14.40;99.90
21061;DHT22;10689;50.836;3.266;2022-11-09T01:46:54;14.30;99.90
21061;DHT22;10689;50.836;3.266;2022-11-09T01:49:35;14.30;99.90
21061;DHT22;10689;50.836;3.266;2022-11-09T01:52:12;14.20;99.90
21061;DHT22;10689;50.836;3.266;2022-11-09T01:54:43;14.20;99.90
21061;DHT22;10689;50.836;3.266;2022-11-09T01:57:14;14.20;99.90
21061;DHT22;10689;50.836;3.266;2022-11-09T01:59:45;14.10;99.90
21061;DHT22;10689;50.836;3.266;2022-11-09T02:02:13;14.00;99.90
21061;DHT22;10689;50.836;3.266;2022-11-09T02:04:44;14.10;99.90
21061;DHT22;10689;50.836;3.266;2022-11-09T02:07:10;14.00;99.90
21061;DHT22;10689;50.836;3.266;2022-11-09T02:10:25;13.90;99.90
21061;DHT22;10689;50.836;3.266;2022-11-09T02:12:33;13.90;99.90
21061;DHT22;10689;50.836;3.266;2022-11-09T02:15:02;13.80;99.90
21061;DHT22;10689;50.836;3.266;2022-11-09T02:17:29;13.70;99.90
21061;DHT22;10689;50.836;3.266;2022-11-09T02:19:59;13.70;99.90
21061;DHT22;10689;50.836;3.266;2022-11-09T02:22:25;13.70;99.90
21061;DHT22;10689;50.836;3.266;2022-11-09T02:24:51;13.60;99.90
21061;DHT22;10689;50.836;3.266;2022-11-09T02:27:18;13.60;99.90
21061;DHT22;10689;50.836;3.266;2022-11-09T02:29:46;13.60;99.90
21061;DHT22;10689;50.836;3.266;2022-11-09T02:32:19;13.60;99.90
21061;DHT22;10689;50.836;3.266;2022-11-09T02:34:45;13.70;99.90
21061;DHT22;10689;50.836;3.266;2022-11-09T02:37:11;13.60;99.90
21061;DHT22;10689;50.836;3.266;2022-11-09T02:39:37;13.70;99.90
21061;DHT22;10689;50.836;3.266;2022-11-09T02:42:14;13.60;99.90
21061;DHT22;10689;50.836;3.266;2022-11-09T02:44:46;13.60;99.90
21061;DHT22;10689;50.836;3.266;2022-11-09T02:47:13;13.60;99.90
21061;DHT22;10689;50.836;3.266;2022-11-09T02:49:38;13.50;99.90
21061;DHT22;10689;50.836;3.266;2022-11-09T02:52:04;13.50;99.90
21061;DHT22;10689;50.836;3.266;2022-11-09T02:54:29;13.50;99.90
21061;DHT22;10689;50.836;3.266;2022-11-09T02:56:55;13.60;99.90
21061;DHT22;10689;50.836;3.266;2022-11-09T02:59:21;13.50;99.90
21061;DHT22;10689;50.836;3.266;2022-11-09T03:01:47;13.40;99.90
21061;DHT22;10689;50.836;3.266;2022-11-09T03:04:13;13.40;99.90
21061;DHT22;10689;50.836;3.266;2022-11-09T03:06:38;13.40;99.90
21061;DHT22;10689;50.836;3.266;2022-11-09T03:09:06;13.40;99.90
21061;DHT22;10689;50.836;3.266;2022-11-09T03:11:34;13.40;99.90
21061;DHT22;10689;50.836;3.266;2022-11-09T03:13:59;13.30;99.90
21061;DHT22;10689;50.836;3.266;2022-11-09T03:16:25;13.30;99.90
21061;DHT22;10689;50.836;3.266;2022-11-09T03:18:51;13.30;99.90
21061;DHT22;10689;50.836;3.266;2022-11-09T03:21:17;13.20;99.90
21061;DHT22;10689;50.836;3.266;2022-11-09T03:23:43;13.20;99.90
21061;DHT22;10689;50.836;3.266;2022-11-09T03:26:09;13.30;99.90
21061;DHT22;10689;50.836;3.266;2022-11-09T03:28:35;13.20;99.90
21061;DHT22;10689;50.836;3.266;2022-11-09T03:31:00;13.30;99.90
21061;DHT22;10689;50.836;3.266;2022-11-09T03:33:26;13.30;99.90
21061;DHT22;10689;50.836;3.266;2022-11-09T03:35:52;13.30;99.90
21061;DHT22;10689;50.836;3.266;2022-11-09T03:38:18;13.20;99.90
21061;DHT22;10689;50.836;3.266;2022-11-09T03:40:44;13.20;99.90
21061;DHT22;10689;50.836;3.266;2022-11-09T03:43:09;13.30;99.90
21061;DHT22;10689;50.836;3.266;2022-11-09T03:45:35;13.30;99.90
21061;DHT22;10689;50.836;3.266;2022-11-09T03:48:01;13.30;99.90
21061;DHT22;10689;50.836;3.266;2022-11-09T03:50:29;13.30;99.90
21061;DHT22;10689;50.836;3.266;2022-11-09T03:52:56;13.30;99.90
21061;DHT22;10689;50.836;3.266;2022-11-09T03:55:22;13.30;99.90
21061;DHT22;10689;50.836;3.266;2022-11-09T03:57:47;13.30;99.90
21061;DHT22;10689;50.836;3.266;2022-11-09T04:00:15;13.30;99.90
21061;DHT22;10689;50.836;3.266;2022-11-09T04:02:41;13.30;99.90
21061;DHT22;10689;50.836;3.266;2022-11-09T04:05:09;13.30;99.90
21061;DHT22;10689;50.836;3.266;2022-11-09T04:07:34;13.30;99.90
21061;DHT22;10689;50.836;3.266;2022-11-09T04:10:00;13.30;99.90
21061;DHT22;10689;50.836;3.266;2022-11-09T04:12:26;13.30;99.90
21061;DHT22;10689;50.836;3.266;2022-11-09T04:14:51;13.30;99.90
21061;DHT22;10689;50.836;3.266;2022-11-09T04:17:18;13.20;99.90
21061;DHT22;10689;50.836;3.266;2022-11-09T04:19:43;13.10;99.90
21061;DHT22;10689;50.836;3.266;2022-11-09T04:22:09;13.10;99.90
21061;DHT22;10689;50.836;3.266;2022-11-09T04:24:34;13.10;99.90
21061;DHT22;10689;50.836;3.266;2022-11-09T04:27:00;13.10;99.90
21061;DHT22;10689;50.836;3.266;2022-11-09T04:29:26;13.10;99.90
21061;DHT22;10689;50.836;3.266;2022-11-09T04:31:51;13.10;99.90
21061;DHT22;10689;50.836;3.266;2022-11-09T04:34:17;13.10;99.90
21061;DHT22;10689;50.836;3.266;2022-11-09T04:36:43;13.10;99.90
21061;DHT22;10689;50.836;3.266;2022-11-09T04:39:09;13.10;99.90
21061;DHT22;10689;50.836;3.266;2022-11-09T04:41:35;13.10;99.90
21061;DHT22;10689;50.836;3.266;2022-11-09T04:44:00;13.10;99.90
21061;DHT22;10689;50.836;3.266;2022-11-09T04:46:26;13.10;99.90
21061;DHT22;10689;50.836;3.266;2022-11-09T04:48:52;13.00;99.90
21061;DHT22;10689;50.836;3.266;2022-11-09T04:51:18;13.00;99.90
21061;DHT22;10689;50.836;3.266;2022-11-09T04:53:44;13.00;99.90
21061;DHT22;10689;50.836;3.266;2022-11-09T04:56:10;13.00;99.90
21061;DHT22;10689;50.836;3.266;2022-11-09T04:58:37;13.00;99.90
21061;DHT22;10689;50.836;3.266;2022-11-09T05:01:06;13.00;99.90
21061;DHT22;10689;50.836;3.266;2022-11-09T05:03:33;12.90;99.90
21061;DHT22;10689;50.836;3.266;2022-11-09T05:05:58;13.00;99.90
21061;DHT22;10689;50.836;3.266;2022-11-09T05:08:25;12.90;99.90
21061;DHT22;10689;50.836;3.266;2022-11-09T05:10:50;12.90;99.90
21061;DHT22;10689;50.836;3.266;2022-11-09T05:13:20;12.90;99.90
21061;DHT22;10689;50.836;3.266;2022-11-09T05:15:45;12.90;99.90
21061;DHT22;10689;50.836;3.266;2022-11-09T05:18:11;12.80;99.90
21061;DHT22;10689;50.836;3.266;2022-11-09T05:20:37;12.80;99.90
21061;DHT22;10689;50.836;3.266;2022-11-09T05:23:02;12.80;99.90
21061;DHT22;10689;50.836;3.266;2022-11-09T05:25:47;12.80;99.90
21061;DHT22;10689;50.836;3.266;2022-11-09T05:28:13;12.70;99.90
21061;DHT22;10689;50.836;3.266;2022-11-09T05:30:39;12.80;99.90
21061;DHT22;10689;50.836;3.266;2022-11-09T05:33:04;12.80;99.90
21061;DHT22;10689;50.836;3.266;2022-11-09T05:35:32;12.70;99.90
21061;DHT22;10689;50.836;3.266;2022-11-09T05:37:58;12.70;99.90
21061;DHT22;10689;50.836;3.266;2022-11-09T05:40:24;12.60;99.90
21061;DHT22;10689;50.836;3.266;2022-11-09T05:42:49;12.60;99.90
21061;DHT22;10689;50.836;3.266;2022-11-09T05:45:17;12.60;99.90
21061;DHT22;10689;50.836;3.266;2022-11-09T05:47:43;12.60;99.90
21061;DHT22;10689;50.836;3.266;2022-11-09T05:50:12;12.60;99.90
21061;DHT22;10689;50.836;3.266;2022-11-09T05:52:38;12.60;99.90
21061;DHT22;10689;50.836;3.266;2022-11-09T05:55:05;12.50;99.90
21061;DHT22;10689;50.836;3.266;2022-11-09T05:57:31;12.50;99.90
21061;DHT22;10689;50.836;3.266;2022-11-09T05:59:57;12.50;99.90
21061;DHT22;10689;50.836;3.266;2022-11-09T06:02:22;12.40;99.90
21061;DHT22;10689;50.836;3.266;2022-11-09T06:04:49;12.40;99.90
21061;DHT22;10689;50.836;3.266;2022-11-09T06:07:14;12.40;99.90
21061;DHT22;10689;50.836;3.266;2022-11-09T06:09:40;12.40;99.90
21061;DHT22;10689;50.836;3.266;2022-11-09T06:12:06;12.40;99.90
21061;DHT22;10689;50.836;3.266;2022-11-09T06:14:32;12.40;99.90
21061;DHT22;10689;50.836;3.266;2022-11-09T06:16:57;12.40;99.90
21061;DHT22;10689;50.836;3.266;2022-11-09T06:19:24;12.40;99.90
21061;DHT22;10689;50.836;3.266;2022-11-09T06:21:50;12.40;99.90
21061;DHT22;10689;50.836;3.266;2022-11-09T06:24:15;12.40;99.90
21061;DHT22;10689;50.836;3.266;2022-11-09T06:26:41;12.30;99.90
21061;DHT22;10689;50.836;3.266;2022-11-09T06:29:07;12.40;99.90
21061;DHT22;10689;50.836;3.266;2022-11-09T06:31:32;12.40;99.90
21061;DHT22;10689;50.836;3.266;2022-11-09T06:33:58;12.30;99.90
21061;DHT22;10689;50.836;3.266;2022-11-09T06:36:24;12.30;99.90
21061;DHT22;10689;50.836;3.266;2022-11-09T06:38:53;12.30;99.90
21061;DHT22;10689;50.836;3.266;2022-11-09T06:41:19;12.30;99.90
21061;DHT22;10689;50.836;3.266;2022-11-09T06:43:45;12.30;99.90
21061;DHT22;10689;50.836;3.266;2022-11-09T06:46:11;12.40;99.90
21061;DHT22;10689;50.836;3.266;2022-11-09T06:48:37;12.40;99.90
21061;DHT22;10689;50.836;3.266;2022-11-09T06:51:04;12.40;99.90
21061;DHT22;10689;50.836;3.266;2022-11-09T06:53:32;12.40;99.90
21061;DHT22;10689;50.836;3.266;2022-11-09T06:56:02;12.40;99.90
21061;DHT22;10689;50.836;3.266;2022-11-09T06:58:30;12.40;99.90
21061;DHT22;10689;50.836;3.266;2022-11-09T07:00:56;12.50;99.90
21061;DHT22;10689;50.836;3.266;2022-11-09T07:03:22;12.50;99.90
21061;DHT22;10689;50.836;3.266;2022-11-09T07:05:49;12.50;99.90
21061;DHT22;10689;50.836;3.266;2022-11-09T07:08:16;12.50;99.90
21061;DHT22;10689;50.836;3.266;2022-11-09T07:10:43;12.50;99.90
21061;DHT22;10689;50.836;3.266;2022-11-09T07:13:08;12.60;99.90
21061;DHT22;10689;50.836;3.266;2022-11-09T07:15:35;12.70;99.90
21061;DHT22;10689;50.836;3.266;2022-11-09T07:18:03;12.70;99.90
21061;DHT22;10689;50.836;3.266;2022-11-09T07:20:29;12.70;99.90
21061;DHT22;10689;50.836;3.266;2022-11-09T07:22:54;12.60;99.90
21061;DHT22;10689;50.836;3.266;2022-11-09T07:25:20;12.60;99.90
21061;DHT22;10689;50.836;3.266;2022-11-09T07:27:46;12.50;99.90
21061;DHT22;10689;50.836;3.266;2022-11-09T07:30:12;12.40;99.90
21061;DHT22;10689;50.836;3.266;2022-11-09T07:32:39;12.50;99.90
21061;DHT22;10689;50.836;3.266;2022-11-09T07:35:05;12.40;99.90
21061;DHT22;10689;50.836;3.266;2022-11-09T07:37:31;12.40;99.90
21061;DHT22;10689;50.836;3.266;2022-11-09T07:39:57;12.50;99.90
21061;DHT22;10689;50.836;3.266;2022-11-09T07:42:23;12.50;99.90
21061;DHT22;10689;50.836;3.266;2022-11-09T07:44:49;12.40;99.90
21061;DHT22;10689;50.836;3.266;2022-11-09T07:47:16;12.50;99.90
21061;DHT22;10689;50.836;3.266;2022-11-09T07:49:41;12.50;99.90
21061;DHT22;10689;50.836;3.266;2022-11-09T07:52:07;12.60;99.90
21061;DHT22;10689;50.836;3.266;2022-11-09T07:54:33;12.60;99.90
21061;DHT22;10689;50.836;3.266;2022-11-09T07:56:58;12.60;99.90
21061;DHT22;10689;50.836;3.266;2022-11-09T07:59:24;12.60;99.90
21061;DHT22;10689;50.836;3.266;2022-11-09T08:01:50;12.60;99.90
21061;DHT22;10689;50.836;3.266;2022-11-09T08:04:15;12.60;99.90
21061;DHT22;10689;50.836;3.266;2022-11-09T08:06:41;12.60;99.90
21061;DHT22;10689;50.836;3.266;2022-11-09T08:09:07;12.60;99.90
21061;DHT22;10689;50.836;3.266;2022-11-09T08:11:32;12.70;99.90
21061;DHT22;10689;50.836;3.266;2022-11-09T08:13:58;12.70;99.90
21061;DHT22;10689;50.836;3.266;2022-11-09T08:16:24;12.80;99.90
21061;DHT22;10689;50.836;3.266;2022-11-09T08:18:50;12.70;99.90
21061;DHT22;10689;50.836;3.266;2022-11-09T08:21:16;12.60;99.90
21061;DHT22;10689;50.836;3.266;2022-11-09T08:23:42;12.60;99.90
21061;DHT22;10689;50.836;3.266;2022-11-09T08:26:09;12.60;99.90
21061;DHT22;10689;50.836;3.266;2022-11-09T08:28:35;12.70;99.90
21061;DHT22;10689;50.836;3.266;2022-11-09T08:31:04;12.70;99.90
21061;DHT22;10689;50.836;3.266;2022-11-09T08:33:33;12.80;99.90
21061;DHT22;10689;50.836;3.266;2022-11-09T08:35:59;12.80;99.90
21061;DHT22;10689;50.836;3.266;2022-11-09T08:38:25;12.80;99.90
21061;DHT22;10689;50.836;3.266;2022-11-09T08:40:56;12.90;99.90
21061;DHT22;10689;50.836;3.266;2022-11-09T08:43:22;12.90;99.90
21061;DHT22;10689;50.836;3.266;2022-11-09T08:45:48;12.90;99.90
21061;DHT22;10689;50.836;3.266;2022-11-09T08:48:14;12.90;99.90
21061;DHT22;10689;50.836;3.266;2022-11-09T08:50:40;12.90;99.90
21061;DHT22;10689;50.836;3.266;2022-11-09T08:53:06;13.00;99.90
21061;DHT22;10689;50.836;3.266;2022-11-09T08:55:33;13.10;99.90
21061;DHT22;10689;50.836;3.266;2022-11-09T08:58:01;13.10;99.90
21061;DHT22;10689;50.836;3.266;2022-11-09T09:00:27;13.20;99.90
21061;DHT22;10689;50.836;3.266;2022-11-09T09:02:53;13.40;99.90
21061;DHT22;10689;50.836;3.266;2022-11-09T09:05:19;13.40;99.90
21061;DHT22;10689;50.836;3.266;2022-11-09T09:07:45;13.40;99.90
21061;DHT22;10689;50.836;3.266;2022-11-09T09:10:11;13.50;99.90
21061;DHT22;10689;50.836;3.266;2022-11-09T09:12:36;13.50;99.90
21061;DHT22;10689;50.836;3.266;2022-11-09T09:15:03;13.60;99.90
21061;DHT22;10689;50.836;3.266;2022-11-09T09:17:29;13.70;99.90
21061;DHT22;10689;50.836;3.266;2022-11-09T09:19:54;13.90;99.90
21061;DHT22;10689;50.836;3.266;2022-11-09T09:22:20;14.00;99.90
21061;DHT22;10689;50.836;3.266;2022-11-09T09:24:46;14.20;99.90
21061;DHT22;10689;50.836;3.266;2022-11-09T09:27:12;14.30;99.90
21061;DHT22;10689;50.836;3.266;2022-11-09T09:29:38;14.50;99.90
21061;DHT22;10689;50.836;3.266;2022-11-09T09:32:04;14.60;99.90
21061;DHT22;10689;50.836;3.266;2022-11-09T09:34:29;14.70;99.90
21061;DHT22;10689;50.836;3.266;2022-11-09T09:36:55;14.80;99.90
21061;DHT22;10689;50.836;3.266;2022-11-09T09:39:21;15.00;99.90
21061;DHT22;10689;50.836;3.266;2022-11-09T09:41:55;15.10;99.90
21061;DHT22;10689;50.836;3.266;2022-11-09T09:44:33;15.20;99.90
21061;DHT22;10689;50.836;3.266;2022-11-09T09:49:51;15.20;99.90
21061;DHT22;10689;50.836;3.266;2022-11-09T09:57:36;15.10;99.90
21061;DHT22;10689;50.836;3.266;2022-11-09T10:00:05;15.10;99.90
21061;DHT22;10689;50.836;3.266;2022-11-09T10:02:35;15.00;99.90
21061;DHT22;10689;50.836;3.266;2022-11-09T10:05:05;15.00;99.90
21061;DHT22;10689;50.836;3.266;2022-11-09T10:07:51;15.00;99.90
21061;DHT22;10689;50.836;3.266;2022-11-09T10:15:57;14.80;99.90
21061;DHT22;10689;50.836;3.266;2022-11-09T10:21:36;14.80;99.90
21061;DHT22;10689;50.836;3.266;2022-11-09T10:26:50;14.70;99.90
21061;DHT22;10689;50.836;3.266;2022-11-09T10:31:51;14.70;99.90
21061;DHT22;10689;50.836;3.266;2022-11-09T10:34:20;14.70;99.90
21061;DHT22;10689;50.836;3.266;2022-11-09T10:40:05;14.80;99.90
21061;DHT22;10689;50.836;3.266;2022-11-09T10:42:35;14.80;99.90
21061;DHT22;10689;50.836;3.266;2022-11-09T10:45:11;14.80;99.90
21061;DHT22;10689;50.836;3.266;2022-11-09T10:47:49;14.90;99.90
21061;DHT22;10689;50.836;3.266;2022-11-09T10:53:19;15.10;99.90
21061;DHT22;10689;50.836;3.266;2022-11-09T10:56:04;15.20;99.90
21061;DHT22;10689;50.836;3.266;2022-11-09T10:58:34;15.50;99.90
21061;DHT22;10689;50.836;3.266;2022-11-09T11:03:38;15.90;99.90
21061;DHT22;10689;50.836;3.266;2022-11-09T11:06:14;16.10;99.90
21061;DHT22;10689;50.836;3.266;2022-11-09T11:08:43;16.20;99.90
21061;DHT22;10689;50.836;3.266;2022-11-09T11:11:26;16.10;99.90
21061;DHT22;10689;50.836;3.266;2022-11-09T11:16:46;15.70;99.90
21061;DHT22;10689;50.836;3.266;2022-11-09T11:19:35;15.60;99.90
21061;DHT22;10689;50.836;3.266;2022-11-09T11:24:43;15.60;99.90
21061;DHT22;10689;50.836;3.266;2022-11-09T11:27:29;15.60;99.90
21061;DHT22;10689;50.836;3.266;2022-11-09T11:32:29;15.50;99.90
21061;DHT22;10689;50.836;3.266;2022-11-09T11:34:55;15.60;99.90
21061;DHT22;10689;50.836;3.266;2022-11-09T11:37:37;15.60;99.90
21061;DHT22;10689;50.836;3.266;2022-11-09T11:40:16;15.80;99.90
21061;DHT22;10689;50.836;3.266;2022-11-09T11:51:05;15.60;99.90
21061;DHT22;10689;50.836;3.266;2022-11-09T11:56:44;15.60;99.90
21061;DHT22;10689;50.836;3.266;2022-11-09T12:08:03;15.90;99.90
21061;DHT22;10689;50.836;3.266;2022-11-09T12:15:59;16.10;99.90
21061;DHT22;10689;50.836;3.266;2022-11-09T12:21:24;16.30;99.90
21061;DHT22;10689;50.836;3.266;2022-11-09T12:29:21;16.40;99.90
21061;DHT22;10689;50.836;3.266;2022-11-09T12:34:36;16.40;99.90
21061;DHT22;10689;50.836;3.266;2022-11-09T12:37:09;16.50;99.90
21061;DHT22;10689;50.836;3.266;2022-11-09T12:39:49;16.60;99.90
21061;DHT22;10689;50.836;3.266;2022-11-09T12:42:36;16.60;99.90
21061;DHT22;10689;50.836;3.266;2022-11-09T12:47:43;16.60;99.90
21061;DHT22;10689;50.836;3.266;2022-11-09T12:50:20;16.60;99.90
21061;DHT22;10689;50.836;3.266;2022-11-09T12:52:48;16.60;99.90
21061;DHT22;10689;50.836;3.266;2022-11-09T12:55:39;16.70;99.90
21061;DHT22;10689;50.836;3.266;2022-11-09T12:58:06;16.80;99.90
21061;DHT22;10689;50.836;3.266;2022-11-09T13:03:00;16.90;99.90
21061;DHT22;10689;50.836;3.266;2022-11-09T13:05:35;17.00;99.90
21061;DHT22;10689;50.836;3.266;2022-11-09T13:08:06;17.00;99.90
21061;DHT22;10689;50.836;3.266;2022-11-09T13:10:35;16.80;99.90
21061;DHT22;10689;50.836;3.266;2022-11-09T13:23:48;14.90;99.90
21061;DHT22;10689;50.836;3.266;2022-11-09T13:31:58;14.60;99.90
21061;DHT22;10689;50.836;3.266;2022-11-09T13:34:50;14.40;99.90
21061;DHT22;10689;50.836;3.266;2022-11-09T13:43:00;14.40;99.90
21061;DHT22;10689;50.836;3.266;2022-11-09T13:45:51;14.30;99.90
21061;DHT22;10689;50.836;3.266;2022-11-09T13:51:05;14.30;99.90
21061;DHT22;10689;50.836;3.266;2022-11-09T13:59:08;14.00;99.90
21061;DHT22;10689;50.836;3.266;2022-11-09T14:01:48;13.90;99.90
21061;DHT22;10689;50.836;3.266;2022-11-09T14:04:26;13.90;99.90
21061;DHT22;10689;50.836;3.266;2022-11-09T14:07:01;13.80;99.90
21061;DHT22;10689;50.836;3.266;2022-11-09T14:20:39;13.80;99.90
21061;DHT22;10689;50.836;3.266;2022-11-09T14:23:18;13.80;99.90
21061;DHT22;10689;50.836;3.266;2022-11-09T14:25:44;13.70;99.90
21061;DHT22;10689;50.836;3.266;2022-11-09T14:28:28;13.80;99.90
21061;DHT22;10689;50.836;3.266;2022-11-09T14:30:54;13.80;99.90
21061;DHT22;10689;50.836;3.266;2022-11-09T14:33:26;13.70;99.90
21061;DHT22;10689;50.836;3.266;2022-11-09T14:35:53;13.70;99.90
21061;DHT22;10689;50.836;3.266;2022-11-09T14:38:21;13.80;99.90
21061;DHT22;10689;50.836;3.266;2022-11-09T14:40:49;13.70;99.90
21061;DHT22;10689;50.836;3.266;2022-11-09T14:43:50;13.80;99.90
21061;DHT22;10689;50.836;3.266;2022-11-09T14:46:22;13.80;99.90
21061;DHT22;10689;50.836;3.266;2022-11-09T14:48:57;13.90;99.90
21061;DHT22;10689;50.836;3.266;2022-11-09T14:51:32;13.90;99.90
21061;DHT22;10689;50.836;3.266;2022-11-09T14:54:00;13.80;99.90
21061;DHT22;10689;50.836;3.266;2022-11-09T14:56:26;13.80;99.90
21061;DHT22;10689;50.836;3.266;2022-11-09T14:58:55;13.90;99.90
21061;DHT22;10689;50.836;3.266;2022-11-09T15:01:24;13.90;99.90
21061;DHT22;10689;50.836;3.266;2022-11-09T15:06:44;14.00;99.90
21061;DHT22;10689;50.836;3.266;2022-11-09T15:09:18;13.90;99.90
21061;DHT22;10689;50.836;3.266;2022-11-09T15:11:45;14.00;99.90
21061;DHT22;10689;50.836;3.266;2022-11-09T15:14:31;14.00;99.90
21061;DHT22;10689;50.836;3.266;2022-11-09T15:17:21;14.00;99.90
21061;DHT22;10689;50.836;3.266;2022-11-09T15:19:54;13.90;99.90
21061;DHT22;10689;50.836;3.266;2022-11-09T15:22:41;13.80;99.90
21061;DHT22;10689;50.836;3.266;2022-11-09T15:28:02;13.90;99.90
21061;DHT22;10689;50.836;3.266;2022-11-09T15:30:37;13.90;99.90
21061;DHT22;10689;50.836;3.266;2022-11-09T15:33:26;13.80;99.90
21061;DHT22;10689;50.836;3.266;2022-11-09T15:38:41;13.90;99.90
21061;DHT22;10689;50.836;3.266;2022-11-09T15:41:14;14.00;99.90
21061;DHT22;10689;50.836;3.266;2022-11-09T15:43:40;13.90;99.90
21061;DHT22;10689;50.836;3.266;2022-11-09T15:46:09;13.90;99.90
21061;DHT22;10689;50.836;3.266;2022-11-09T15:48:35;13.90;99.90
21061;DHT22;10689;50.836;3.266;2022-11-09T15:51:01;13.90;99.90
21061;DHT22;10689;50.836;3.266;2022-11-09T15:53:27;13.80;99.90
21061;DHT22;10689;50.836;3.266;2022-11-09T15:55:52;13.80;99.90
21061;DHT22;10689;50.836;3.266;2022-11-09T15:58:18;13.80;99.90
21061;DHT22;10689;50.836;3.266;2022-11-09T16:00:44;13.70;99.90
21061;DHT22;10689;50.836;3.266;2022-11-09T16:03:10;13.70;99.90
21061;DHT22;10689;50.836;3.266;2022-11-09T16:05:37;13.50;99.90
21061;DHT22;10689;50.836;3.266;2022-11-09T16:08:03;13.30;99.90
21061;DHT22;10689;50.836;3.266;2022-11-09T16:10:32;13.30;99.90
21061;DHT22;10689;50.836;3.266;2022-11-09T16:13:02;13.30;99.90
21061;DHT22;10689;50.836;3.266;2022-11-09T16:15:29;13.30;99.90
21061;DHT22;10689;50.836;3.266;2022-11-09T16:17:55;13.20;99.90
21061;DHT22;10689;50.836;3.266;2022-11-09T16:20:20;13.20;99.90
21061;DHT22;10689;50.836;3.266;2022-11-09T16:22:47;13.10;99.90
21061;DHT22;10689;50.836;3.266;2022-11-09T16:25:13;13.10;99.90
21061;DHT22;10689;50.836;3.266;2022-11-09T16:27:39;13.00;99.90
21061;DHT22;10689;50.836;3.266;2022-11-09T16:30:07;13.00;99.90
21061;DHT22;10689;50.836;3.266;2022-11-09T16:32:33;13.00;99.90
21061;DHT22;10689;50.836;3.266;2022-11-09T16:34:59;12.90;99.90
21061;DHT22;10689;50.836;3.266;2022-11-09T16:37:25;12.80;99.90
21061;DHT22;10689;50.836;3.266;2022-11-09T16:39:51;12.80;99.90
21061;DHT22;10689;50.836;3.266;2022-11-09T16:42:17;12.70;99.90
21061;DHT22;10689;50.836;3.266;2022-11-09T16:44:46;12.80;99.90
21061;DHT22;10689;50.836;3.266;2022-11-09T16:47:15;12.80;99.90
21061;DHT22;10689;50.836;3.266;2022-11-09T16:49:42;12.80;99.90
21061;DHT22;10689;50.836;3.266;2022-11-09T16:52:08;12.60;99.90
21061;DHT22;10689;50.836;3.266;2022-11-09T16:54:34;12.70;99.90
21061;DHT22;10689;50.836;3.266;2022-11-09T16:57:00;12.60;99.90
21061;DHT22;10689;50.836;3.266;2022-11-09T16:59:26;12.60;99.90
21061;DHT22;10689;50.836;3.266;2022-11-09T17:01:57;12.60;99.90
21061;DHT22;10689;50.836;3.266;2022-11-09T17:04:23;12.50;99.90
21061;DHT22;10689;50.836;3.266;2022-11-09T17:06:50;12.40;99.90
21061;DHT22;10689;50.836;3.266;2022-11-09T17:09:17;12.40;99.90
21061;DHT22;10689;50.836;3.266;2022-11-09T17:11:43;12.40;99.90
21061;DHT22;10689;50.836;3.266;2022-11-09T17:14:09;12.40;99.90
21061;DHT22;10689;50.836;3.266;2022-11-09T17:16:34;12.40;99.90
21061;DHT22;10689;50.836;3.266;2022-11-09T17:19:00;12.40;99.90
21061;DHT22;10689;50.836;3.266;2022-11-09T17:21:28;12.30;99.90
21061;DHT22;10689;50.836;3.266;2022-11-09T17:23:55;12.40;99.90
21061;DHT22;10689;50.836;3.266;2022-11-09T17:26:21;12.50;99.90
21061;DHT22;10689;50.836;3.266;2022-11-09T17:28:48;12.50;99.90
21061;DHT22;10689;50.836;3.266;2022-11-09T17:31:16;12.50;99.90
21061;DHT22;10689;50.836;3.266;2022-11-09T17:33:42;12.40;99.90
21061;DHT22;10689;50.836;3.266;2022-11-09T17:36:09;12.30;99.90
21061;DHT22;10689;50.836;3.266;2022-11-09T17:38:41;12.30;99.90
21061;DHT22;10689;50.836;3.266;2022-11-09T17:41:10;12.20;99.90
21061;DHT22;10689;50.836;3.266;2022-11-09T17:43:37;12.30;99.90
21061;DHT22;10689;50.836;3.266;2022-11-09T17:48:30;12.30;99.90
21061;DHT22;10689;50.836;3.266;2022-11-09T17:50:57;12.30;99.90